Time;durP1;ratioP1;P1;durP2;ratioP2;P2;SDS_P1;SDS_P2;PMS_P1;PMS_P2;Temp;Humidity;BMP_temperature;BMP_pressure;BME280_temperature;BME280_humidity;BME280_pressure;Samples;Min_cycle;Max_cycle;Signal;HPM_P1;HPM_P2
2022/08/01 00:01:25;;;;;;;3.45;3.20;;;35.80;80.40;;;;;;5011046;28;20655;-95
2022/08/01 00:03:57;;;;;;;3.83;3.10;;;36.20;82.30;;;;;;5006309;28;20278;-95
2022/08/01 00:06:37;;;;;;;4.88;3.20;;;36.30;81.00;;;;;;5009546;28;20224;-95
2022/08/01 00:09:22;;;;;;;3.40;3.10;;;36.60;82.30;;;;;;5006674;28;20230;-95
2022/08/01 00:11:58;;;;;;;3.40;3.20;;;36.80;82.20;;;;;;5006544;28;20206;-95
2022/08/01 00:14:33;;;;;;;3.25;2.90;;;36.90;80.40;;;;;;5008852;28;20217;-95
2022/08/01 00:17:06;;;;;;;3.47;3.17;;;37.10;79.40;;;;;;5028335;28;20240;-94
2022/08/01 00:19:40;;;;;;;4.00;2.95;;;37.00;76.80;;;;;;5027244;28;20566;-95
2022/08/01 00:24:58;;;;;;;3.15;2.85;;;36.70;77.70;;;;;;5008834;28;20210;-94
2022/08/01 00:27:30;;;;;;;3.00;2.70;;;36.80;78.10;;;;;;5001360;28;20264;-95
2022/08/01 00:30:10;;;;;;;3.28;2.97;;;36.90;77.40;;;;;;5008499;28;20277;-96
2022/08/01 00:32:45;;;;;;;4.07;3.05;;;36.90;77.50;;;;;;5008257;28;20213;-95
2022/08/01 00:35:16;;;;;;;3.40;3.10;;;37.10;77.70;;;;;;5010797;28;20222;-95
2022/08/01 00:37:51;;;;;;;3.60;3.30;;;36.90;76.40;;;;;;5008921;28;20216;-95
2022/08/01 00:40:43;;;;;;;3.78;3.00;;;36.70;78.60;;;;;;5013588;28;20202;-94
2022/08/01 00:53:57;;;;;;;3.90;3.40;;;36.50;75.80;;;;;;4998346;28;20240;-93
2022/08/01 00:56:33;;;;;;;3.67;2.90;;;36.50;76.20;;;;;;4998291;28;20222;-94
2022/08/01 00:59:07;;;;;;;3.45;2.92;;;36.40;74.60;;;;;;4998996;28;20578;-94
2022/08/01 01:01:39;;;;;;;3.50;3.20;;;36.30;74.10;;;;;;5000338;28;20213;-94
2022/08/01 01:04:17;;;;;;;3.63;3.03;;;36.20;74.80;;;;;;5003383;28;20217;-93
2022/08/01 01:06:59;;;;;;;4.18;3.33;;;36.10;76.90;;;;;;5001260;28;20233;-93
2022/08/01 01:09:38;;;;;;;4.40;3.03;;;35.90;75.60;;;;;;5003566;28;20234;-93
2022/08/01 01:12:26;;;;;;;3.00;2.80;;;36.10;75.70;;;;;;5006911;28;20745;-93
2022/08/01 01:15:12;;;;;;;3.13;2.92;;;36.30;74.70;;;;;;4999706;28;20237;-93
2022/08/01 01:17:57;;;;;;;5.00;3.03;;;36.70;72.60;;;;;;5010493;28;20222;-93
2022/08/01 01:23:47;;;;;;;3.65;2.70;;;37.80;72.10;;;;;;5006453;28;20217;-93
2022/08/01 01:26:42;;;;;;;3.17;2.90;;;38.00;68.10;;;;;;5016523;28;20217;-94
2022/08/01 01:29:21;;;;;;;3.92;2.85;;;37.90;71.30;;;;;;5012455;28;20237;-92
2022/08/01 01:32:09;;;;;;;5.35;3.50;;;38.10;73.10;;;;;;5010318;28;20202;-93
2022/08/01 01:34:45;;;;;;;3.40;3.10;;;37.90;73.30;;;;;;4999940;28;20313;-93
2022/08/01 01:37:19;;;;;;;4.43;3.75;;;38.10;74.10;;;;;;5000758;28;20202;-93
2022/08/01 01:39:53;;;;;;;4.90;3.47;;;38.20;73.40;;;;;;5004473;28;20213;-93
2022/08/01 01:45:41;;;;;;;5.40;3.28;;;38.00;72.90;;;;;;5210779;23;20296;-93
2022/08/01 01:48:38;;;;;;;3.08;2.78;;;38.10;74.00;;;;;;5012394;28;20206;-93
2022/08/01 01:54:06;;;;;;;3.90;2.80;;;37.90;67.80;;;;;;5257714;23;20256;-95
2022/08/01 01:56:50;;;;;;;4.45;2.83;;;37.60;68.60;;;;;;5005960;28;20214;-94
2022/08/01 01:59:26;;;;;;;3.65;2.80;;;37.20;70.30;;;;;;5000807;28;20265;-94
2022/08/01 02:02:04;;;;;;;3.58;3.03;;;36.80;69.20;;;;;;5000189;28;20202;-94
2022/08/01 02:04:40;;;;;;;4.10;3.03;;;36.00;72.20;;;;;;5000217;28;20261;-94
2022/08/01 02:07:14;;;;;;;3.45;3.15;;;35.50;73.00;;;;;;5000590;28;20228;-94
2022/08/01 02:09:47;;;;;;;4.85;3.33;;;35.20;74.40;;;;;;5000147;28;20230;-93
2022/08/01 02:12:22;;;;;;;4.63;3.50;;;34.70;76.10;;;;;;5003590;28;20198;-94
2022/08/01 02:14:55;;;;;;;3.70;3.40;;;34.10;77.90;;;;;;5005369;28;20198;-95
2022/08/01 02:17:33;;;;;;;4.20;3.83;;;33.60;80.40;;;;;;5003710;28;20240;-95
2022/08/01 02:20:05;;;;;;;4.93;4.18;;;33.20;81.20;;;;;;5002021;28;20286;-95
2022/08/01 02:22:39;;;;;;;5.25;4.18;;;33.00;82.80;;;;;;4983474;28;20218;-95
2022/08/01 02:25:17;;;;;;;4.75;3.70;;;32.80;84.00;;;;;;5004417;28;20244;-95
2022/08/01 02:28:03;;;;;;;5.43;3.97;;;32.70;84.20;;;;;;5005869;28;20209;-95
2022/08/01 02:30:37;;;;;;;4.20;3.80;;;32.50;87.30;;;;;;4988044;28;20233;-95
2022/08/01 02:33:17;;;;;;;4.82;4.32;;;32.40;86.20;;;;;;5004401;28;20210;-95
2022/08/01 02:35:51;;;;;;;4.90;4.07;;;32.20;87.00;;;;;;5018556;28;20240;-95
2022/08/01 02:38:47;;;;;;;5.05;4.25;;;32.00;90.10;;;;;;5005669;28;20187;-95
2022/08/01 02:41:23;;;;;;;4.40;4.00;;;31.80;90.30;;;;;;4986386;28;20181;-96
2022/08/01 02:43:59;;;;;;;4.25;3.80;;;31.60;90.00;;;;;;5019492;28;20205;-95
2022/08/01 02:46:35;;;;;;;4.63;4.20;;;31.50;90.40;;;;;;5019518;28;20182;-94
2022/08/01 02:49:11;;;;;;;6.47;4.00;;;31.30;91.50;;;;;;5017433;28;20233;-95
2022/08/01 02:51:43;;;;;;;5.68;4.00;;;31.20;91.60;;;;;;5003673;28;20237;-95
2022/08/01 02:54:17;;;;;;;4.90;3.60;;;31.00;91.00;;;;;;5002968;28;20304;-95
2022/08/01 02:56:52;;;;;;;6.38;4.30;;;30.90;91.80;;;;;;5009229;28;20245;-95
2022/08/01 02:59:25;;;;;;;4.38;3.78;;;30.70;93.10;;;;;;5000039;28;20218;-94
2022/08/01 03:02:00;;;;;;;6.53;4.05;;;30.50;93.90;;;;;;5016372;28;20221;-94
2022/08/01 03:04:37;;;;;;;5.10;4.13;;;30.40;94.10;;;;;;5009265;28;20270;-95
2022/08/01 03:07:11;;;;;;;4.15;3.75;;;30.30;94.30;;;;;;5001228;28;20276;-95
2022/08/01 03:09:46;;;;;;;5.30;4.13;;;30.10;94.10;;;;;;5001223;28;20257;-94
2022/08/01 03:12:21;;;;;;;6.63;4.78;;;30.10;93.70;;;;;;4999407;28;20210;-94
2022/08/01 03:14:54;;;;;;;6.50;4.20;;;30.00;93.80;;;;;;4999218;28;20300;-95
2022/08/01 03:17:28;;;;;;;6.82;4.40;;;29.90;94.30;;;;;;4978337;28;20226;-95
2022/08/01 03:20:06;;;;;;;5.80;4.47;;;29.80;94.70;;;;;;4979739;28;20237;-95
2022/08/01 03:22:39;;;;;;;6.20;4.78;;;29.70;95.00;;;;;;4979105;28;20234;-94
2022/08/01 03:25:12;;;;;;;4.82;4.05;;;29.60;95.50;;;;;;4986042;28;20226;-95
2022/08/01 03:27:45;;;;;;;4.30;3.90;;;29.60;95.10;;;;;;5000925;28;20213;-95
2022/08/01 03:30:17;;;;;;;4.77;4.37;;;29.50;94.10;;;;;;5015317;28;20230;-96
2022/08/01 03:40:57;;;;;;;4.43;3.70;;;29.10;94.10;;;;;;5321434;23;20236;-96
2022/08/01 03:51:52;;;;;;;3.78;3.25;;;28.60;92.10;;;;;;5025551;28;20217;-95
2022/08/01 04:01:04;;;;;;;5.47;4.50;;;27.70;93.80;;;;;;5012462;26;20230;-94
2022/08/01 04:03:48;;;;;;;4.43;3.83;;;27.40;94.80;;;;;;5011268;28;20212;-95
2022/08/01 04:09:24;;;;;;;4.20;3.33;;;27.20;92.10;;;;;;4989584;28;20234;-94
2022/08/01 04:12:02;;;;;;;7.50;3.60;;;27.20;93.20;;;;;;4991523;28;20215;-95
2022/08/01 04:17:38;;;;;;;5.57;3.40;;;27.00;95.10;;;;;;4990303;28;20215;-94
2022/08/01 04:20:10;;;;;;;3.97;3.13;;;26.90;94.90;;;;;;4984672;28;20210;-94
2022/08/01 04:22:43;;;;;;;4.40;2.87;;;26.80;94.60;;;;;;4989764;28;20211;-94
2022/08/01 04:25:21;;;;;;;4.73;2.90;;;26.70;94.20;;;;;;4989204;28;20214;-94
2022/08/01 04:27:56;;;;;;;3.17;2.87;;;26.60;95.10;;;;;;4989896;28;20214;-95
2022/08/01 04:30:32;;;;;;;8.17;3.17;;;26.50;96.00;;;;;;4987897;28;20238;-94
2022/08/01 04:33:16;;;;;;;3.90;3.00;;;26.40;95.60;;;;;;4985096;28;20670;-94
2022/08/01 04:35:50;;;;;;;3.43;2.67;;;26.40;95.40;;;;;;4989525;28;20219;-95
2022/08/01 04:46:32;;;;;;;2.80;2.60;;;26.10;96.60;;;;;;4994596;28;20237;-94
2022/08/01 04:49:09;;;;;;;5.87;2.70;;;26.10;97.00;;;;;;4997336;28;20221;-95
2022/08/01 04:51:57;;;;;;;4.70;2.83;;;26.00;97.40;;;;;;4995874;28;20222;-96
2022/08/01 04:54:29;;;;;;;2.60;2.40;;;25.90;97.00;;;;;;4977808;28;20199;-96
2022/08/01 04:57:15;;;;;;;2.43;2.23;;;25.80;96.90;;;;;;4968916;28;20261;-96
2022/08/01 04:59:49;;;;;;;3.60;2.50;;;25.80;98.00;;;;;;4959336;29;20238;-96
2022/08/01 05:02:20;;;;;;;4.20;2.60;;;25.70;97.80;;;;;;4959918;29;20223;-95
2022/08/01 05:04:54;;;;;;;4.63;2.90;;;25.60;98.90;;;;;;4942094;29;20203;-95
2022/08/01 05:07:25;;;;;;;3.20;2.87;;;25.50;99.10;;;;;;4959089;29;20282;-95
2022/08/01 05:09:57;;;;;;;3.00;2.40;;;25.50;99.10;;;;;;4958910;29;20234;-95
2022/08/01 05:12:28;;;;;;;2.93;2.63;;;25.50;99.10;;;;;;4958574;29;20220;-95
2022/08/01 05:15:02;;;;;;;2.70;2.50;;;25.40;99.40;;;;;;4961210;28;20673;-95
2022/08/01 05:17:33;;;;;;;2.70;2.50;;;25.30;99.90;;;;;;4994955;28;20222;-95
2022/08/01 05:20:07;;;;;;;3.27;2.67;;;25.30;99.90;;;;;;4996382;28;20261;-96
2022/08/01 05:22:39;;;;;;;3.50;2.60;;;25.30;99.90;;;;;;4994345;28;20195;-95
2022/08/01 05:25:12;;;;;;;2.43;2.23;;;25.20;99.90;;;;;;4992452;28;20219;-95
2022/08/01 05:27:50;;;;;;;4.57;2.50;;;25.10;99.90;;;;;;4978460;28;20214;-95
2022/08/01 05:30:24;;;;;;;2.87;2.40;;;25.00;99.90;;;;;;4963177;28;20231;-96
2022/08/01 05:32:56;;;;;;;2.67;2.47;;;24.90;99.90;;;;;;4983618;28;20222;-95
2022/08/01 05:35:30;;;;;;;3.40;2.60;;;24.90;99.90;;;;;;4981824;28;20261;-95
2022/08/01 05:38:18;;;;;;;3.30;3.00;;;24.80;99.90;;;;;;4981182;28;20215;-95
2022/08/01 05:40:50;;;;;;;4.77;2.97;;;24.70;99.90;;;;;;4980942;28;20630;-96
2022/08/01 05:43:22;;;;;;;3.57;3.27;;;24.70;99.90;;;;;;4981475;28;20214;-95
2022/08/01 05:45:58;;;;;;;4.20;3.03;;;24.60;99.90;;;;;;4980799;28;20211;-95
2022/08/01 05:48:30;;;;;;;3.13;2.80;;;24.60;99.90;;;;;;4987107;28;20242;-94
2022/08/01 05:51:03;;;;;;;3.20;2.90;;;24.50;99.90;;;;;;4987888;28;20242;-95
2022/08/01 05:53:35;;;;;;;3.80;2.80;;;24.40;99.90;;;;;;4986302;28;20207;-95
2022/08/01 05:56:07;;;;;;;2.93;2.73;;;24.40;99.90;;;;;;4981013;28;20274;-95
2022/08/01 05:58:38;;;;;;;2.80;2.57;;;24.30;99.90;;;;;;4989561;28;20231;-95
2022/08/01 06:01:09;;;;;;;2.90;2.70;;;24.30;99.90;;;;;;4992421;28;20306;-95
2022/08/01 06:03:40;;;;;;;3.20;3.00;;;24.30;99.90;;;;;;4995646;28;20225;-96
2022/08/01 06:06:22;;;;;;;3.40;3.10;;;24.20;99.90;;;;;;4995772;28;20203;-95
2022/08/01 06:08:54;;;;;;;3.30;3.10;;;24.10;99.90;;;;;;4994771;28;20226;-95
2022/08/01 06:11:29;;;;;;;4.33;3.20;;;24.10;99.90;;;;;;4992730;28;20239;-96
2022/08/01 06:14:05;;;;;;;4.23;3.13;;;24.10;99.90;;;;;;4967948;29;20216;-95
2022/08/01 06:16:45;;;;;;;6.17;3.87;;;24.10;99.90;;;;;;4952415;29;20218;-95
2022/08/01 06:19:18;;;;;;;5.37;3.50;;;24.10;99.90;;;;;;4967722;29;20211;-96
2022/08/01 06:21:52;;;;;;;3.77;3.47;;;24.10;99.90;;;;;;5299943;23;20227;-95
2022/08/01 06:24:24;;;;;;;3.93;3.53;;;24.10;99.90;;;;;;5286649;23;20201;-96
2022/08/01 06:26:56;;;;;;;4.43;3.67;;;24.10;99.90;;;;;;5039616;28;20212;-96
2022/08/01 06:29:27;;;;;;;4.80;4.40;;;24.10;99.90;;;;;;5037426;28;20218;-95
2022/08/01 06:32:00;;;;;;;4.40;3.57;;;24.00;99.90;;;;;;5019856;28;20240;-96
2022/08/01 06:34:32;;;;;;;4.40;3.50;;;24.00;99.90;;;;;;5020082;28;20271;-96
2022/08/01 06:37:06;;;;;;;6.93;3.70;;;24.00;99.90;;;;;;5019875;28;20252;-96
2022/08/01 06:39:38;;;;;;;3.63;3.30;;;23.90;99.90;;;;;;5019207;28;20238;-95
2022/08/01 06:42:11;;;;;;;5.03;3.60;;;23.90;99.90;;;;;;5018896;28;20666;-95
2022/08/01 06:44:42;;;;;;;4.30;3.87;;;23.80;99.90;;;;;;5019414;28;20210;-93
2022/08/01 06:47:14;;;;;;;5.10;3.60;;;23.70;99.90;;;;;;5019399;28;20201;-94
2022/08/01 06:49:45;;;;;;;4.40;3.23;;;23.80;99.90;;;;;;5018174;28;20232;-94
2022/08/01 06:52:21;;;;;;;3.77;3.47;;;23.70;99.90;;;;;;5021875;28;20248;-94
2022/08/01 06:54:53;;;;;;;4.23;3.20;;;23.70;99.90;;;;;;5019131;28;20218;-94
2022/08/01 06:57:24;;;;;;;3.50;3.27;;;23.70;99.90;;;;;;5021012;28;20217;-94
2022/08/01 06:59:56;;;;;;;5.33;3.70;;;23.60;99.90;;;;;;5020647;28;20268;-94
2022/08/01 07:02:28;;;;;;;5.60;3.80;;;23.60;99.90;;;;;;5020043;28;20217;-95
2022/08/01 07:05:00;;;;;;;4.43;3.37;;;23.50;99.90;;;;;;5020487;28;20268;-94
2022/08/01 07:07:38;;;;;;;4.40;3.77;;;23.40;99.90;;;;;;5021028;28;20213;-94
2022/08/01 07:10:11;;;;;;;4.60;3.87;;;23.30;99.90;;;;;;5018881;28;20619;-95
2022/08/01 07:12:43;;;;;;;4.77;3.37;;;23.30;99.90;;;;;;5018259;28;20233;-95
2022/08/01 07:15:15;;;;;;;4.27;3.20;;;23.20;99.90;;;;;;5018581;28;20194;-94
2022/08/01 07:17:46;;;;;;;4.00;3.60;;;23.20;99.90;;;;;;5022586;28;20237;-93
2022/08/01 07:20:21;;;;;;;4.60;4.13;;;23.20;99.90;;;;;;5020521;28;20584;-95
2022/08/01 07:22:55;;;;;;;5.33;3.37;;;23.10;99.90;;;;;;5019456;28;20623;-94
2022/08/01 07:25:29;;;;;;;3.73;3.40;;;23.10;99.90;;;;;;5018770;28;20229;-94
2022/08/01 07:28:03;;;;;;;4.47;3.80;;;23.00;99.90;;;;;;5018543;28;20205;-94
2022/08/01 07:30:34;;;;;;;7.10;3.90;;;23.00;99.90;;;;;;5026250;28;20268;-94
2022/08/01 07:33:07;;;;;;;5.93;4.00;;;22.90;99.90;;;;;;5018417;28;20261;-94
2022/08/01 07:35:42;;;;;;;5.17;3.57;;;22.90;99.90;;;;;;5018472;28;20222;-94
2022/08/01 07:38:16;;;;;;;4.10;3.70;;;22.80;99.90;;;;;;5018420;28;20728;-95
2022/08/01 07:40:48;;;;;;;5.03;3.70;;;22.70;99.90;;;;;;5019023;28;20205;-94
2022/08/01 07:43:20;;;;;;;6.17;3.60;;;22.60;99.90;;;;;;5018967;28;20198;-94
2022/08/01 07:45:51;;;;;;;5.03;3.57;;;22.60;99.90;;;;;;5019501;28;20241;-94
2022/08/01 07:48:23;;;;;;;5.07;3.50;;;22.50;99.90;;;;;;5021653;28;20224;-93
2022/08/01 07:50:56;;;;;;;5.20;3.30;;;22.40;99.90;;;;;;5022203;28;20615;-93
2022/08/01 07:53:29;;;;;;;4.00;3.60;;;22.40;99.90;;;;;;5020351;28;20673;-94
2022/08/01 07:56:02;;;;;;;4.00;3.60;;;22.30;99.90;;;;;;5036155;28;20213;-94
2022/08/01 07:58:33;;;;;;;3.80;3.50;;;22.30;99.90;;;;;;5036624;28;20214;-94
2022/08/01 08:01:08;;;;;;;4.37;3.87;;;22.20;99.90;;;;;;5032260;28;20206;-94
2022/08/01 08:03:40;;;;;;;3.87;3.47;;;22.10;99.90;;;;;;5024645;28;20308;-95
2022/08/01 08:06:13;;;;;;;5.43;3.47;;;22.10;99.90;;;;;;5021992;28;20217;-95
2022/08/01 08:08:45;;;;;;;3.47;3.17;;;22.00;99.90;;;;;;5022353;28;20210;-95
2022/08/01 08:11:17;;;;;;;4.17;3.70;;;21.90;99.90;;;;;;5019486;28;20213;-96
2022/08/01 08:13:48;;;;;;;4.00;3.50;;;21.90;99.90;;;;;;5023350;28;20246;-95
2022/08/01 08:16:20;;;;;;;4.10;3.67;;;21.80;99.90;;;;;;5034755;28;20205;-94
2022/08/01 08:18:51;;;;;;;3.93;3.57;;;21.80;99.90;;;;;;5035906;28;20558;-95
2022/08/01 08:21:24;;;;;;;3.47;3.17;;;21.70;99.90;;;;;;5035888;28;20194;-95
2022/08/01 08:26:46;;;;;;;4.10;3.10;;;21.60;99.90;;;;;;5036753;28;20213;-93
2022/08/01 08:29:21;;;;;;;4.07;3.40;;;21.60;99.90;;;;;;5036769;28;20189;-95
2022/08/01 08:31:54;;;;;;;3.13;2.93;;;21.50;99.90;;;;;;5036231;28;20214;-94
2022/08/01 08:34:35;;;;;;;3.97;3.07;;;21.50;99.90;;;;;;5036348;28;20200;-95
2022/08/01 08:37:07;;;;;;;3.47;3.00;;;21.40;99.90;;;;;;5032357;28;20213;-94
2022/08/01 08:39:41;;;;;;;5.17;3.40;;;21.40;99.90;;;;;;5021251;28;20271;-94
2022/08/01 08:42:14;;;;;;;5.63;3.20;;;21.40;99.90;;;;;;5020765;28;20209;-94
2022/08/01 08:44:47;;;;;;;3.43;3.13;;;21.30;99.90;;;;;;5021195;28;20205;-94
2022/08/01 08:47:21;;;;;;;4.20;3.10;;;21.30;99.90;;;;;;5022197;28;20202;-94
2022/08/01 08:49:56;;;;;;;6.73;3.40;;;21.10;99.90;;;;;;5019510;28;20205;-94
2022/08/01 08:52:29;;;;;;;5.63;3.13;;;21.20;99.90;;;;;;5019240;28;20257;-94
2022/08/01 08:55:04;;;;;;;3.37;3.03;;;21.10;99.90;;;;;;5019759;28;20217;-94
2022/08/01 08:57:36;;;;;;;3.87;3.40;;;21.10;99.90;;;;;;5019797;28;20213;-95
2022/08/01 09:00:09;;;;;;;3.43;2.93;;;21.00;99.90;;;;;;5019477;28;20216;-94
2022/08/01 09:02:46;;;;;;;3.23;3.00;;;21.00;99.90;;;;;;5018573;28;20213;-95
2022/08/01 09:05:25;;;;;;;4.60;3.10;;;21.00;99.90;;;;;;5021481;28;20213;-94
2022/08/01 09:08:09;;;;;;;4.33;3.40;;;21.00;99.90;;;;;;5022646;28;20686;-93
2022/08/01 09:10:43;;;;;;;4.47;3.50;;;21.00;99.90;;;;;;5021926;28;20264;-95
2022/08/01 09:13:16;;;;;;;3.23;3.03;;;21.00;99.90;;;;;;5022582;28;20233;-94
2022/08/01 09:15:50;;;;;;;3.57;3.10;;;20.90;99.90;;;;;;5021595;28;20225;-95
2022/08/01 09:18:31;;;;;;;4.90;3.23;;;20.90;99.90;;;;;;5021944;28;20222;-95
2022/08/01 09:21:14;;;;;;;4.50;3.17;;;20.90;99.90;;;;;;5020538;28;20209;-94
2022/08/01 09:23:49;;;;;;;4.30;3.40;;;20.80;99.90;;;;;;5020817;28;20209;-94
2022/08/01 09:26:31;;;;;;;3.90;3.47;;;20.80;99.90;;;;;;5021870;28;20225;-94
2022/08/01 09:29:06;;;;;;;3.50;3.17;;;20.70;99.90;;;;;;5022404;28;20244;-95
2022/08/01 09:31:43;;;;;;;4.53;3.73;;;20.70;99.90;;;;;;5021336;28;20213;-94
2022/08/01 09:34:18;;;;;;;5.77;3.20;;;20.60;99.90;;;;;;5020508;28;20248;-94
2022/08/01 09:36:55;;;;;;;3.90;3.43;;;20.60;99.90;;;;;;5022511;28;20202;-94
2022/08/01 09:39:28;;;;;;;3.80;3.50;;;20.60;99.90;;;;;;5021371;28;20202;-95
2022/08/01 09:42:03;;;;;;;3.77;3.37;;;20.60;99.90;;;;;;5020412;28;20232;-94
2022/08/01 09:44:43;;;;;;;3.40;3.10;;;20.50;99.90;;;;;;5020392;28;20653;-95
2022/08/01 09:47:24;;;;;;;4.60;3.40;;;20.50;99.90;;;;;;5023759;28;20221;-94
2022/08/01 09:49:59;;;;;;;3.60;3.30;;;20.50;99.90;;;;;;5025141;28;20206;-94
2022/08/01 09:52:36;;;;;;;3.67;3.33;;;20.50;99.90;;;;;;5021287;28;20241;-94
2022/08/01 09:55:11;;;;;;;3.63;3.33;;;20.50;99.90;;;;;;5022004;28;20220;-94
2022/08/01 09:57:58;;;;;;;3.90;3.50;;;20.50;99.90;;;;;;5021471;28;20220;-94
2022/08/01 10:00:30;;;;;;;4.17;3.20;;;20.50;99.90;;;;;;5020537;28;20209;-94
2022/08/01 10:03:25;;;;;;;3.93;3.00;;;20.50;99.90;;;;;;5020120;28;20210;-94
2022/08/01 10:05:56;;;;;;;3.43;3.13;;;20.50;99.90;;;;;;5021078;28;20213;-94
2022/08/01 10:08:29;;;;;;;3.80;3.30;;;20.50;99.90;;;;;;5020689;28;20213;-94
2022/08/01 10:11:16;;;;;;;4.67;3.53;;;20.50;99.90;;;;;;5020013;28;20205;-95
2022/08/01 10:13:52;;;;;;;3.67;3.37;;;20.60;99.90;;;;;;5020903;28;20240;-94
2022/08/01 10:16:25;;;;;;;3.50;2.87;;;20.50;99.90;;;;;;5021173;28;20233;-95
2022/08/01 10:18:59;;;;;;;4.93;3.37;;;20.50;99.90;;;;;;5022096;28;20210;-95
2022/08/01 10:21:34;;;;;;;3.80;3.37;;;20.60;99.90;;;;;;5021274;28;20229;-94
2022/08/01 10:24:32;;;;;;;3.67;3.17;;;20.60;99.90;;;;;;5005815;28;20209;-94
2022/08/01 10:27:07;;;;;;;4.67;3.43;;;20.70;99.90;;;;;;5001041;28;20584;-95
2022/08/01 10:29:53;;;;;;;4.60;3.40;;;20.70;99.90;;;;;;5000509;28;20218;-95
2022/08/01 10:32:38;;;;;;;6.30;3.80;;;20.70;99.90;;;;;;4999032;28;20273;-94
2022/08/01 10:35:15;;;;;;;4.73;3.77;;;20.70;99.90;;;;;;4999831;28;20212;-95
2022/08/01 10:38:07;;;;;;;3.87;3.27;;;20.70;99.90;;;;;;4999915;28;20268;-95
2022/08/01 10:40:41;;;;;;;5.07;3.60;;;20.70;99.90;;;;;;4998771;28;20205;-95
2022/08/01 10:43:12;;;;;;;4.63;3.53;;;20.70;99.90;;;;;;4999611;28;20261;-94
2022/08/01 10:45:53;;;;;;;4.10;3.60;;;20.70;99.90;;;;;;4999839;28;20575;-94
2022/08/01 10:48:32;;;;;;;5.43;3.50;;;20.80;99.90;;;;;;5000342;28;20214;-95
2022/08/01 10:51:07;;;;;;;3.43;3.13;;;20.80;99.90;;;;;;5006006;28;20218;-95
2022/08/01 10:53:54;;;;;;;3.53;3.27;;;20.80;99.90;;;;;;5035242;28;20268;-94
2022/08/01 10:56:41;;;;;;;3.87;3.57;;;20.90;99.90;;;;;;5038282;28;20205;-95
2022/08/01 10:59:21;;;;;;;5.80;3.60;;;20.80;99.90;;;;;;5038346;28;20280;-95
2022/08/01 11:02:27;;;;;;;5.63;3.70;;;20.80;99.90;;;;;;5036819;28;20253;-95
2022/08/01 11:05:05;;;;;;;4.27;3.83;;;20.80;99.90;;;;;;5037094;28;20217;-95
2022/08/01 11:07:49;;;;;;;4.57;3.70;;;20.90;99.90;;;;;;5024019;28;20206;-94
2022/08/01 11:10:28;;;;;;;6.20;3.20;;;21.00;99.90;;;;;;5023962;28;20204;-95
2022/08/01 11:13:00;;;;;;;3.63;3.33;;;21.00;99.90;;;;;;5022573;28;20218;-94
2022/08/01 11:15:33;;;;;;;4.03;3.73;;;21.00;99.90;;;;;;5038950;28;20200;-95
2022/08/01 11:18:33;;;;;;;6.40;3.50;;;21.00;99.90;;;;;;5057979;28;20197;-95
2022/08/01 11:21:07;;;;;;;3.90;3.50;;;21.00;99.90;;;;;;5057156;28;20260;-95
2022/08/01 11:23:59;;;;;;;4.90;3.80;;;21.00;99.90;;;;;;5038816;28;20189;-95
2022/08/01 11:26:32;;;;;;;4.77;3.50;;;21.00;99.90;;;;;;5037210;28;20217;-95
2022/08/01 11:29:16;;;;;;;5.07;3.63;;;21.00;99.90;;;;;;5032605;28;20299;-94
2022/08/01 11:31:52;;;;;;;5.13;3.70;;;20.80;99.90;;;;;;5019023;28;20555;-95
2022/08/01 11:34:58;;;;;;;3.63;3.30;;;20.70;99.90;;;;;;5022036;28;20237;-95
2022/08/01 11:37:38;;;;;;;7.00;3.90;;;20.60;99.90;;;;;;5038439;28;20216;-95
2022/08/01 11:40:21;;;;;;;4.87;3.30;;;20.60;99.90;;;;;;5037900;28;20185;-95
2022/08/01 11:43:20;;;;;;;3.17;2.90;;;20.60;99.90;;;;;;5038083;28;20213;-94
2022/08/01 11:45:54;;;;;;;5.13;2.90;;;20.60;99.90;;;;;;5033242;28;20221;-95
2022/08/01 11:48:28;;;;;;;3.77;3.37;;;20.70;99.90;;;;;;5019382;28;20229;-95
2022/08/01 11:51:02;;;;;;;3.53;3.10;;;20.70;99.90;;;;;;5017943;28;20260;-94
2022/08/01 11:53:37;;;;;;;6.70;3.30;;;20.80;99.90;;;;;;5003170;28;20237;-94
2022/08/01 11:56:10;;;;;;;4.60;3.03;;;20.90;99.90;;;;;;4998723;28;20210;-94
2022/08/01 11:58:46;;;;;;;8.13;3.30;;;20.80;99.90;;;;;;5006067;28;20206;-94
2022/08/01 12:01:22;;;;;;;3.43;3.00;;;20.60;99.90;;;;;;5016736;28;20206;-95
2022/08/01 12:03:58;;;;;;;3.80;3.00;;;20.60;99.90;;;;;;5017623;28;20194;-94
2022/08/01 12:06:34;;;;;;;5.23;3.00;;;20.70;99.90;;;;;;5017864;28;20245;-95
2022/08/01 12:09:18;;;;;;;4.07;2.97;;;20.70;99.90;;;;;;5017842;28;20194;-95
2022/08/01 12:12:03;;;;;;;3.03;2.73;;;20.60;99.90;;;;;;5011303;28;20225;-94
2022/08/01 12:14:36;;;;;;;6.73;3.70;;;20.60;99.90;;;;;;5019825;28;20248;-95
2022/08/01 12:17:09;;;;;;;4.80;3.47;;;20.60;99.90;;;;;;5035984;28;20209;-94
2022/08/01 12:19:42;;;;;;;5.40;2.87;;;20.60;99.90;;;;;;5025862;28;20201;-95
2022/08/01 12:22:16;;;;;;;4.37;3.30;;;20.60;99.90;;;;;;5020644;28;20293;-95
2022/08/01 12:24:48;;;;;;;3.80;3.07;;;20.60;99.90;;;;;;5019947;28;20657;-94
2022/08/01 12:27:28;;;;;;;6.50;3.30;;;20.60;99.90;;;;;;5019024;28;20224;-95
2022/08/01 12:30:01;;;;;;;4.53;3.20;;;20.60;99.90;;;;;;5020591;28;20625;-94
2022/08/01 12:32:35;;;;;;;3.73;2.90;;;20.50;99.90;;;;;;5018094;28;20217;-94
2022/08/01 12:35:08;;;;;;;6.07;3.70;;;20.60;99.90;;;;;;5017750;28;20533;-94
2022/08/01 12:37:50;;;;;;;5.03;3.30;;;20.50;99.90;;;;;;5017380;28;20696;-93
2022/08/01 12:40:24;;;;;;;5.83;3.63;;;20.40;99.90;;;;;;5017529;28;20217;-94
2022/08/01 12:42:56;;;;;;;5.70;3.40;;;20.40;99.90;;;;;;5031607;28;20205;-94
2022/08/01 12:45:29;;;;;;;5.40;3.60;;;20.30;99.90;;;;;;5036533;28;20213;-94
2022/08/01 12:48:02;;;;;;;5.37;2.83;;;20.20;99.90;;;;;;5019389;28;20285;-93
2022/08/01 12:50:35;;;;;;;5.70;3.83;;;20.10;99.90;;;;;;5017855;28;20213;-94
2022/08/01 12:53:10;;;;;;;6.37;3.47;;;20.00;99.90;;;;;;5007753;28;20226;-94
2022/08/01 12:55:50;;;;;;;4.97;3.50;;;20.00;99.90;;;;;;5001686;28;20247;-94
2022/08/01 12:58:34;;;;;;;4.80;3.37;;;19.90;99.90;;;;;;5016519;28;20233;-94
2022/08/01 13:01:07;;;;;;;4.43;3.67;;;20.00;99.90;;;;;;5015627;28;20205;-94
2022/08/01 13:03:42;;;;;;;7.43;4.00;;;19.90;99.90;;;;;;5010876;28;20208;-93
2022/08/01 13:06:14;;;;;;;5.60;3.97;;;19.80;99.90;;;;;;4999243;28;20210;-94
2022/08/01 13:08:48;;;;;;;4.60;3.57;;;19.80;99.90;;;;;;5000590;28;20206;-94
2022/08/01 13:11:21;;;;;;;8.17;3.20;;;19.80;99.90;;;;;;4998391;28;20246;-94
2022/08/01 13:13:54;;;;;;;6.03;3.67;;;19.80;99.90;;;;;;4998895;28;20654;-94
2022/08/01 13:16:27;;;;;;;4.83;3.30;;;19.80;99.90;;;;;;5026391;28;20231;-94
2022/08/01 13:19:19;;;;;;;6.37;3.43;;;19.90;99.90;;;;;;5037969;28;20767;-94
2022/08/01 13:21:58;;;;;;;4.50;3.67;;;19.90;99.90;;;;;;5039906;28;20216;-95
2022/08/01 13:24:35;;;;;;;5.40;3.80;;;20.00;99.90;;;;;;5056125;28;20201;-94
2022/08/01 13:27:07;;;;;;;4.67;3.37;;;20.00;99.90;;;;;;5055510;28;20252;-94
2022/08/01 13:29:41;;;;;;;4.30;3.30;;;20.00;99.90;;;;;;5056204;28;20201;-94
2022/08/01 13:32:17;;;;;;;4.10;3.20;;;19.90;99.90;;;;;;5055435;28;20217;-94
2022/08/01 13:35:06;;;;;;;4.63;4.00;;;20.00;99.90;;;;;;5038621;28;20233;-94
2022/08/01 13:37:38;;;;;;;4.13;3.43;;;20.00;99.90;;;;;;5036215;28;20248;-94
2022/08/01 13:40:14;;;;;;;6.67;3.90;;;20.10;99.90;;;;;;5036766;28;20232;-94
2022/08/01 13:42:45;;;;;;;5.63;3.80;;;20.10;99.90;;;;;;5036400;28;20189;-94
2022/08/01 13:45:17;;;;;;;5.57;3.80;;;20.00;99.90;;;;;;5034742;28;20272;-94
2022/08/01 13:47:51;;;;;;;5.53;4.10;;;20.00;99.90;;;;;;5018106;28;20204;-94
2022/08/01 13:50:41;;;;;;;6.00;4.00;;;20.00;99.90;;;;;;5018099;28;20586;-94
2022/08/01 13:53:24;;;;;;;6.23;3.50;;;20.00;99.90;;;;;;5021295;28;20221;-94
2022/08/01 13:55:59;;;;;;;3.77;3.30;;;20.10;99.90;;;;;;5022973;28;20233;-94
2022/08/01 13:58:33;;;;;;;3.17;2.87;;;20.10;99.90;;;;;;5022106;28;20216;-94
2022/08/01 14:01:09;;;;;;;3.80;3.27;;;20.20;99.90;;;;;;5021208;28;20262;-95
2022/08/01 14:03:42;;;;;;;4.60;2.73;;;20.00;99.90;;;;;;5021170;28;20265;-93
2022/08/01 14:06:13;;;;;;;2.90;2.60;;;20.00;99.90;;;;;;5020977;28;20222;-94
2022/08/01 14:08:46;;;;;;;2.70;2.50;;;20.00;99.90;;;;;;5020263;28;20257;-93
2022/08/01 14:11:21;;;;;;;6.70;3.10;;;19.90;99.90;;;;;;5019373;28;20214;-93
2022/08/01 14:14:00;;;;;;;4.57;3.00;;;20.00;99.90;;;;;;5020069;28;20209;-94
2022/08/01 14:16:33;;;;;;;2.97;2.67;;;20.00;99.90;;;;;;5020225;28;20229;-94
2022/08/01 14:19:05;;;;;;;2.97;2.60;;;20.00;99.90;;;;;;5021122;28;20244;-93
2022/08/01 14:21:38;;;;;;;3.43;2.43;;;20.00;99.90;;;;;;5023184;28;20202;-94
2022/08/01 14:24:10;;;;;;;2.90;2.57;;;19.90;99.90;;;;;;5001858;28;20221;-93
2022/08/01 14:26:48;;;;;;;4.70;2.50;;;19.90;99.90;;;;;;5000535;28;20222;-94
2022/08/01 14:29:19;;;;;;;4.27;2.93;;;19.90;99.90;;;;;;5002907;28;20213;-93
2022/08/01 14:31:51;;;;;;;4.07;2.40;;;20.00;99.90;;;;;;5001706;28;20210;-94
2022/08/01 14:37:09;;;;;;;3.77;2.90;;;19.70;99.90;;;;;;5000358;28;20297;-94
2022/08/01 14:42:32;;;;;;;2.83;2.63;;;19.70;99.90;;;;;;4999521;28;20215;-94